createdAt,value
2023-04-11T00:02:13.001Z,3.03
2023-04-11T00:04:45.099Z,2.60
2023-04-11T00:07:16.228Z,2.50
2023-04-11T00:09:47.642Z,2.50
2023-04-11T00:12:22.721Z,2.50
2023-04-11T00:14:54.922Z,2.43
2023-04-11T00:17:30.713Z,2.43
2023-04-11T00:20:09.515Z,2.80
2023-04-11T00:22:41.207Z,2.20
2023-04-11T00:25:13.760Z,2.20
2023-04-11T00:27:47.167Z,1.90
2023-04-11T00:30:20.977Z,1.37
2023-04-11T00:32:52.915Z,1.30
2023-04-11T00:35:24.545Z,1.30
2023-04-11T00:37:57.726Z,1.50
2023-04-11T00:40:30.865Z,1.50
2023-04-11T00:43:05.429Z,1.47
2023-04-11T00:45:36.664Z,1.27
2023-04-11T00:48:08.078Z,1.37
2023-04-11T00:50:43.429Z,1.30
2023-04-11T00:53:20.784Z,1.90
2023-04-11T00:55:57.255Z,1.50
2023-04-11T00:58:31.572Z,1.70
2023-04-11T01:01:03.770Z,1.40
2023-04-11T01:03:35.360Z,1.50
2023-04-11T01:06:08.422Z,1.70
2023-04-11T01:08:41.514Z,1.50
2023-04-11T01:11:13.547Z,1.53
2023-04-11T01:13:46.937Z,1.60
2023-04-11T01:16:22.431Z,1.73
2023-04-11T01:18:55.058Z,1.57
2023-04-11T01:21:28.107Z,1.60
2023-04-11T01:24:05.155Z,1.70
2023-04-11T01:26:36.790Z,1.70
2023-04-11T01:29:08.925Z,1.47
2023-04-11T01:31:40.948Z,1.60
2023-04-11T01:34:15.254Z,1.87
2023-04-11T01:36:47.373Z,1.60
2023-04-11T01:39:21.212Z,1.70
2023-04-11T01:41:54.852Z,2.00
2023-04-11T01:44:26.739Z,2.00
2023-04-11T01:46:58.323Z,2.20
2023-04-11T01:49:29.548Z,2.30
2023-04-11T01:52:00.555Z,2.53
2023-04-11T01:54:33.674Z,2.43
2023-04-11T01:57:05.036Z,1.40
2023-04-11T01:59:36.778Z,2.13
2023-04-11T02:02:08.431Z,1.77
2023-04-11T02:04:39.252Z,1.90
2023-04-11T02:07:10.867Z,2.37
2023-04-11T02:09:46.616Z,2.07
2023-04-11T02:12:18.923Z,2.40
2023-04-11T02:14:50.699Z,3.00
2023-04-11T02:17:23.341Z,2.80
2023-04-11T02:19:55.756Z,1.80
2023-04-11T02:22:26.954Z,2.07
2023-04-11T02:25:00.402Z,2.37
2023-04-11T02:27:32.301Z,1.80
2023-04-11T02:30:06.628Z,1.63
2023-04-11T02:32:38.760Z,1.10
2023-04-11T02:35:10.172Z,1.47
2023-04-11T02:37:41.448Z,1.10
2023-04-11T02:40:16.132Z,1.30
2023-04-11T02:42:47.413Z,1.37
2023-04-11T02:45:18.893Z,1.40
2023-04-11T02:47:49.729Z,1.20
2023-04-11T02:50:21.451Z,1.20
2023-04-11T02:52:52.959Z,1.07
2023-04-11T02:55:26.359Z,1.13
2023-04-11T02:57:57.579Z,1.13
2023-04-11T03:00:28.927Z,1.10
2023-04-11T03:03:00.206Z,1.23
2023-04-11T03:05:31.537Z,1.10
2023-04-11T03:08:02.284Z,1.60
2023-04-11T03:10:35.911Z,1.13
2023-04-11T03:13:07.892Z,1.20
2023-04-11T03:15:41.058Z,1.60
2023-04-11T03:18:12.730Z,2.03
2023-04-11T03:20:43.924Z,2.03
2023-04-11T03:23:14.743Z,1.97
2023-04-11T03:25:49.616Z,2.20
2023-04-11T03:28:20.974Z,1.97
2023-04-11T03:30:52.574Z,1.80
2023-04-11T03:33:24.392Z,1.60
2023-04-11T03:35:55.984Z,1.40
2023-04-11T03:38:27.942Z,1.50
2023-04-11T03:41:01.157Z,1.83
2023-04-11T03:43:32.410Z,1.73
2023-04-11T03:46:03.972Z,1.90
2023-04-11T03:48:35.464Z,1.80
2023-04-11T03:51:07.658Z,2.13
2023-04-11T03:53:39.000Z,2.03
2023-04-11T03:56:13.602Z,1.50
2023-04-11T03:58:45.032Z,2.07
2023-04-11T04:01:17.579Z,1.50
2023-04-11T04:03:49.619Z,1.80
2023-04-11T04:06:20.977Z,1.77
2023-04-11T04:08:52.022Z,1.90
2023-04-11T04:11:25.579Z,1.93
2023-04-11T04:13:56.816Z,2.03
2023-04-11T04:16:27.744Z,2.00
2023-04-11T04:18:58.516Z,1.90
2023-04-11T04:21:33.523Z,2.73
2023-04-11T04:24:05.965Z,3.20
2023-04-11T04:26:39.537Z,2.83
2023-04-11T04:29:11.287Z,2.40
2023-04-11T04:31:42.822Z,2.50
2023-04-11T04:34:14.364Z,2.40
2023-04-11T04:36:50.737Z,2.20
2023-04-11T04:39:23.572Z,1.70
2023-04-11T04:41:59.327Z,1.30
2023-04-11T04:44:32.357Z,1.03
2023-04-11T04:47:04.411Z,1.63
2023-04-11T04:49:35.487Z,1.60
2023-04-11T04:52:08.394Z,1.57
2023-04-11T04:54:41.542Z,1.30
2023-04-11T04:57:15.113Z,1.40
2023-04-11T04:59:47.736Z,2.60
2023-04-11T05:02:20.150Z,2.40
2023-04-11T05:04:51.297Z,2.37
2023-04-11T05:07:22.195Z,2.20
2023-04-11T05:09:53.163Z,2.00
2023-04-11T05:12:28.317Z,2.20
2023-04-11T05:14:59.701Z,2.30
2023-04-11T05:17:32.956Z,2.00
2023-04-11T05:20:06.568Z,1.63
2023-04-11T05:22:38.556Z,2.50
2023-04-11T05:25:12.489Z,3.30
2023-04-11T05:27:46.043Z,3.53
2023-04-11T05:30:17.918Z,3.97
2023-04-11T05:32:49.373Z,4.30
2023-04-11T05:35:20.494Z,4.53
2023-04-11T05:37:52.187Z,3.40
2023-04-11T05:40:23.219Z,3.03
2023-04-11T05:42:56.861Z,2.70
2023-04-11T05:45:27.721Z,2.80
2023-04-11T05:47:59.636Z,2.40
2023-04-11T05:50:31.004Z,2.60
2023-04-11T05:53:02.398Z,2.07
2023-04-11T05:55:34.100Z,2.30
2023-04-11T05:58:07.688Z,1.43
2023-04-11T06:00:39.724Z,1.50
2023-04-11T06:03:11.229Z,1.33
2023-04-11T06:05:42.762Z,1.47
2023-04-11T06:08:14.155Z,1.53
2023-04-11T06:10:45.600Z,1.60
2023-04-11T06:13:19.107Z,1.20
2023-04-11T06:15:50.718Z,1.77
2023-04-11T06:18:22.207Z,1.40
2023-04-11T06:20:53.688Z,1.53
2023-04-11T06:23:28.485Z,1.57
2023-04-11T06:26:00.431Z,1.70
2023-04-11T06:28:35.315Z,1.67
2023-04-11T06:31:07.400Z,1.70
2023-04-11T06:33:38.937Z,1.60
2023-04-11T06:36:11.029Z,1.50
2023-04-11T06:38:43.503Z,1.60
2023-04-11T06:41:14.924Z,1.60
2023-04-11T06:43:48.612Z,1.50
2023-04-11T06:46:20.565Z,1.20
2023-04-11T06:48:52.004Z,1.50
2023-04-11T06:51:23.405Z,1.60
2023-04-11T06:53:55.797Z,1.57
2023-04-11T06:56:27.333Z,1.47
2023-04-11T06:59:01.180Z,1.50
2023-04-11T07:01:36.694Z,1.50
2023-04-11T07:04:08.684Z,1.40
2023-04-11T07:06:39.992Z,1.33
2023-04-11T07:09:13.670Z,1.43
2023-04-11T07:11:45.236Z,1.60
2023-04-11T07:14:18.737Z,1.27
2023-04-11T07:16:50.123Z,1.20
2023-04-11T07:19:22.479Z,1.57
2023-04-11T07:21:54.232Z,1.67
2023-04-11T07:24:25.706Z,1.57
2023-04-11T07:26:59.481Z,1.50
2023-04-11T07:29:33.000Z,1.37
2023-04-11T07:32:04.710Z,1.30
2023-04-11T07:34:36.307Z,1.30
2023-04-11T07:37:07.286Z,1.50
2023-04-11T07:39:38.467Z,1.57
2023-04-11T07:42:10.159Z,1.47
2023-04-11T07:44:44.013Z,1.40
2023-04-11T07:47:15.465Z,2.00
2023-04-11T07:49:46.828Z,1.83
2023-04-11T07:52:18.252Z,1.43
2023-04-11T07:54:49.834Z,1.80
2023-04-11T07:57:21.075Z,1.80
2023-04-11T07:59:54.062Z,1.77
2023-04-11T08:02:25.720Z,2.10
2023-04-11T08:04:58.190Z,1.80
2023-04-11T08:07:32.819Z,2.00
2023-04-11T08:10:04.286Z,1.50
2023-04-11T08:12:35.903Z,1.70
2023-04-11T08:15:10.654Z,1.40
2023-04-11T08:17:42.707Z,1.70
2023-04-11T08:20:14.793Z,1.50
2023-04-11T08:22:47.896Z,2.10
2023-04-11T08:25:21.254Z,2.03
2023-04-11T08:27:53.589Z,2.30
2023-04-11T08:30:28.517Z,1.90
2023-04-11T08:32:59.825Z,2.47
2023-04-11T08:35:31.506Z,2.00
2023-04-11T08:38:03.187Z,2.00
2023-04-11T08:40:34.572Z,2.20
2023-04-11T08:43:12.017Z,2.63
2023-04-11T08:45:46.538Z,2.50
2023-04-11T08:48:18.007Z,2.67
2023-04-11T08:50:49.934Z,2.83
2023-04-11T08:53:25.624Z,2.53
2023-04-11T08:55:58.510Z,3.10
2023-04-11T08:58:30.785Z,3.20
2023-04-11T09:01:25.053Z,3.20
2023-04-11T09:03:57.761Z,3.80
2023-04-11T09:06:31.730Z,3.63
2023-04-11T09:09:06.235Z,3.30
2023-04-11T09:11:55.394Z,2.83
2023-04-11T09:14:29.981Z,3.00
2023-04-11T09:17:05.205Z,3.20
2023-04-11T09:19:39.440Z,3.00
2023-04-11T09:22:12.106Z,3.20
2023-04-11T09:24:44.024Z,3.10
2023-04-11T09:27:17.228Z,3.00
2023-04-11T09:29:50.542Z,2.37
2023-04-11T09:32:34.598Z,2.27
2023-04-11T09:35:16.562Z,1.87
2023-04-11T09:37:49.324Z,1.93
2023-04-11T09:40:23.892Z,1.93
2023-04-11T09:43:01.368Z,1.60
2023-04-11T09:45:40.966Z,1.90
2023-04-11T09:48:29.207Z,2.20
2023-04-11T09:51:08.838Z,1.80
2023-04-11T09:53:40.064Z,1.80
2023-04-11T09:56:12.745Z,1.97
2023-04-11T09:58:45.081Z,1.90
2023-04-11T10:01:18.033Z,2.07
2023-04-11T10:03:51.884Z,2.00
2023-04-11T10:06:32.609Z,2.00
2023-04-11T10:09:10.555Z,1.70
2023-04-11T10:11:45.340Z,1.90
2023-04-11T10:14:47.584Z,1.70
2023-04-11T10:17:22.650Z,1.97
2023-04-11T10:19:58.808Z,1.80
2023-04-11T10:23:01.384Z,2.17
2023-04-11T10:25:32.734Z,1.60
2023-04-11T10:28:05.388Z,1.80
2023-04-11T10:31:07.948Z,1.57
2023-04-11T10:33:40.525Z,1.90
2023-04-11T10:36:14.031Z,1.67
2023-04-11T10:38:53.025Z,1.20
2023-04-11T10:41:34.081Z,1.70
2023-04-11T10:44:19.477Z,1.63
2023-04-11T10:46:56.078Z,1.77
2023-04-11T10:49:38.429Z,1.80
2023-04-11T10:52:28.002Z,1.97
2023-04-11T10:55:18.112Z,1.80
2023-04-11T10:58:09.137Z,1.90
2023-04-11T11:01:25.935Z,1.93
2023-04-11T11:04:08.820Z,1.70
2023-04-11T11:06:47.536Z,1.53
2023-04-11T11:09:30.266Z,2.03
2023-04-11T11:12:12.145Z,2.23
2023-04-11T11:14:44.892Z,2.13
2023-04-11T11:17:17.193Z,1.90
2023-04-11T11:19:48.808Z,2.20
2023-04-11T11:22:26.516Z,1.87
2023-04-11T11:25:11.205Z,1.93
2023-04-11T11:27:42.297Z,1.90
2023-04-11T11:30:17.643Z,1.90
2023-04-11T11:32:49.291Z,1.83
2023-04-11T11:35:20.841Z,2.40
2023-04-11T11:37:54.002Z,1.87
2023-04-11T11:40:28.751Z,1.73
2023-04-11T11:42:59.868Z,1.80
2023-04-11T11:45:30.864Z,1.93
2023-04-11T11:48:02.731Z,1.50
2023-04-11T11:50:35.239Z,2.00
2023-04-11T11:53:16.893Z,1.77
2023-04-11T11:55:50.999Z,1.50
2023-04-11T11:58:22.756Z,1.60
2023-04-11T12:00:55.559Z,1.20
2023-04-11T12:03:30.963Z,1.57
2023-04-11T12:06:02.825Z,1.40
2023-04-11T12:08:37.631Z,1.50
2023-04-11T12:11:16.556Z,1.70
2023-04-11T12:13:48.769Z,1.50
2023-04-11T12:16:24.743Z,1.33
2023-04-11T12:18:56.229Z,1.53
2023-04-11T12:21:27.720Z,1.50
2023-04-11T12:23:59.159Z,1.13
2023-04-11T12:26:33.513Z,1.50
2023-04-11T12:29:08.297Z,1.60
2023-04-11T12:31:39.733Z,1.57
2023-04-11T12:34:11.261Z,1.40
2023-04-11T12:36:42.731Z,1.13
2023-04-11T12:39:14.136Z,1.17
2023-04-11T12:41:47.716Z,1.30
2023-04-11T12:44:18.565Z,0.93
2023-04-11T12:46:49.958Z,1.17
2023-04-11T12:49:21.120Z,1.23
2023-04-11T12:51:52.194Z,1.10
2023-04-11T12:54:23.685Z,1.10
2023-04-11T12:56:59.153Z,1.40
2023-04-11T12:59:31.417Z,1.33
2023-04-11T13:02:04.015Z,1.30
2023-04-11T13:04:35.724Z,1.10
2023-04-11T13:07:07.364Z,1.50
2023-04-11T13:09:39.204Z,1.13
2023-04-11T13:12:12.646Z,1.43
2023-04-11T13:14:44.134Z,1.27
2023-04-11T13:17:16.412Z,1.00
2023-04-11T13:19:47.465Z,1.10
2023-04-11T13:22:19.256Z,1.10
2023-04-11T13:24:51.020Z,1.10
2023-04-11T13:27:23.929Z,1.00
2023-04-11T13:29:54.728Z,1.20
2023-04-11T13:32:25.598Z,1.00
2023-04-11T13:34:56.735Z,1.30
2023-04-11T13:37:28.322Z,1.17
2023-04-11T13:39:59.431Z,1.47
2023-04-11T13:42:32.501Z,1.20
2023-04-11T13:45:03.904Z,1.13
2023-04-11T13:47:36.888Z,1.13
2023-04-11T13:50:11.644Z,1.07
2023-04-11T13:52:43.845Z,1.30
2023-04-11T13:55:14.687Z,1.10
2023-04-11T13:57:49.656Z,1.07
2023-04-11T14:00:23.065Z,1.20
2023-04-11T14:02:54.470Z,1.10
2023-04-11T14:05:27.772Z,1.23
2023-04-11T14:07:59.104Z,0.70
2023-04-11T14:10:30.983Z,1.10
2023-04-11T14:13:06.217Z,1.20
2023-04-11T14:15:37.483Z,1.33
2023-04-11T14:18:08.426Z,1.10
2023-04-11T14:20:39.919Z,1.33
2023-04-11T14:23:11.756Z,1.10
2023-04-11T14:25:43.537Z,1.33
2023-04-11T14:28:16.959Z,1.40
2023-04-11T14:30:48.690Z,1.70
2023-04-11T14:33:21.014Z,1.20
2023-04-11T14:35:54.345Z,1.60
2023-04-11T14:38:26.959Z,1.37
2023-04-11T14:40:58.171Z,1.87
2023-04-11T14:43:33.107Z,1.30
2023-04-11T14:46:05.752Z,1.00
2023-04-11T14:48:38.382Z,1.00
2023-04-11T14:51:10.418Z,0.87
2023-04-11T14:53:42.493Z,0.73
2023-04-11T14:56:14.209Z,1.00
2023-04-11T14:58:48.212Z,0.87
2023-04-11T15:01:20.354Z,0.70
2023-04-11T15:03:51.403Z,0.50
2023-04-11T15:06:23.528Z,0.77
2023-04-11T15:08:55.428Z,0.70
2023-04-11T15:11:27.097Z,0.70
2023-04-11T15:14:00.384Z,0.97
2023-04-11T15:16:32.445Z,0.90
2023-04-11T15:19:03.465Z,0.77
2023-04-11T15:21:35.046Z,0.77
2023-04-11T15:24:14.207Z,0.40
2023-04-11T15:26:47.774Z,0.40
2023-04-11T15:29:20.520Z,0.47
2023-04-11T15:31:52.424Z,0.60
2023-04-11T15:34:25.113Z,0.53
2023-04-11T15:36:57.820Z,0.20
2023-04-11T15:39:29.328Z,0.30
2023-04-11T15:42:01.103Z,0.30
2023-04-11T15:44:34.463Z,0.30
2023-04-11T15:47:10.946Z,0.40
2023-04-11T15:49:51.936Z,0.30
2023-04-11T15:52:34.626Z,0.33
2023-04-11T15:55:09.637Z,0.40
2023-04-11T15:57:40.829Z,0.50
2023-04-11T16:00:20.661Z,0.50
2023-04-11T16:02:52.159Z,0.43
2023-04-11T16:05:23.933Z,0.73
2023-04-11T16:07:55.383Z,0.90
2023-04-11T16:10:27.094Z,0.97
2023-04-11T16:12:57.895Z,1.60
2023-04-11T16:15:31.542Z,1.83
2023-04-11T16:18:02.926Z,1.43
2023-04-11T16:20:36.414Z,0.90
2023-04-11T16:23:07.742Z,1.40
2023-04-11T16:25:38.911Z,2.03
2023-04-11T16:28:09.721Z,1.33
2023-04-11T16:30:42.943Z,0.63
2023-04-11T16:33:14.413Z,1.80
2023-04-11T16:35:45.459Z,0.67
2023-04-11T16:38:17.291Z,1.17
2023-04-11T16:40:48.148Z,1.00
2023-04-11T16:43:19.373Z,0.77
2023-04-11T16:45:53.651Z,1.00
2023-04-11T16:48:25.053Z,0.80
2023-04-11T16:50:56.292Z,1.40
2023-04-11T16:53:27.439Z,0.40
2023-04-11T16:55:59.484Z,2.70
2023-04-11T16:58:30.417Z,0.67
2023-04-11T17:01:03.493Z,0.60
2023-04-11T17:03:34.812Z,0.50
2023-04-11T17:06:06.515Z,1.20
2023-04-11T17:08:37.928Z,0.80
2023-04-11T17:11:10.380Z,0.70
2023-04-11T17:13:42.404Z,0.57
2023-04-11T17:16:15.519Z,0.77
2023-04-11T17:18:46.682Z,0.97
2023-04-11T17:21:17.558Z,0.80
2023-04-11T17:23:49.250Z,0.60
2023-04-11T17:26:20.352Z,0.80
2023-04-11T17:28:52.069Z,0.70
2023-04-11T17:31:28.275Z,0.70
2023-04-11T17:33:59.555Z,0.70
2023-04-11T17:36:31.921Z,0.90
2023-04-11T17:39:03.388Z,0.63
2023-04-11T17:41:35.138Z,0.90
2023-04-11T17:44:07.235Z,0.60
2023-04-11T17:46:40.463Z,0.67
2023-04-11T17:49:12.076Z,0.80
2023-04-11T17:51:52.456Z,0.63
2023-04-11T17:54:29.913Z,0.60
2023-04-11T17:57:01.520Z,0.73
2023-04-11T17:59:32.948Z,0.70
2023-04-11T18:02:06.107Z,0.47
2023-04-11T18:04:37.276Z,0.60
2023-04-11T18:07:08.652Z,1.00
2023-04-11T18:09:39.442Z,0.63
2023-04-11T18:12:10.552Z,0.80
2023-04-11T18:14:41.610Z,0.63
2023-04-11T18:17:14.081Z,0.90
2023-04-11T18:19:45.489Z,0.70
2023-04-11T18:22:17.279Z,0.60
2023-04-11T18:24:48.996Z,0.50
2023-04-11T18:27:21.374Z,0.60
2023-04-11T18:29:53.106Z,0.80
2023-04-11T18:32:33.267Z,0.70
2023-04-11T18:35:08.479Z,0.80
2023-04-11T18:37:41.624Z,0.60
2023-04-11T18:40:14.974Z,0.80
2023-04-11T18:42:48.390Z,0.80
2023-04-11T18:45:22.203Z,0.60
2023-04-11T18:47:56.171Z,0.57
2023-04-11T18:50:29.212Z,0.50
2023-04-11T18:53:05.102Z,0.70
2023-04-11T18:55:38.179Z,0.70
2023-04-11T18:58:11.936Z,0.73
2023-04-11T19:00:44.816Z,0.63
2023-04-11T19:03:19.152Z,0.87
2023-04-11T19:05:50.706Z,0.73
2023-04-11T19:08:23.251Z,0.87
2023-04-11T19:10:56.811Z,1.00
2023-04-11T19:13:28.289Z,1.30
2023-04-11T19:15:59.640Z,1.90
2023-04-11T19:18:33.256Z,2.70
2023-04-11T19:21:04.782Z,1.80
2023-04-11T19:23:36.280Z,0.83
2023-04-11T19:26:07.676Z,1.30
2023-04-11T19:28:39.173Z,0.90
2023-04-11T19:31:10.989Z,1.10
2023-04-11T19:33:44.688Z,0.90
2023-04-11T19:36:16.691Z,0.87
2023-04-11T19:38:48.320Z,0.80
2023-04-11T19:41:20.849Z,0.90
2023-04-11T19:43:52.203Z,1.47
2023-04-11T19:46:24.551Z,1.00
2023-04-11T19:48:58.227Z,1.40
2023-04-11T19:51:29.299Z,0.90
2023-04-11T19:54:00.596Z,1.00
2023-04-11T19:56:32.119Z,1.17
2023-04-11T19:59:03.299Z,0.73
2023-04-11T20:01:34.890Z,0.83
2023-04-11T20:04:08.362Z,0.90
2023-04-11T20:06:39.664Z,1.13
2023-04-11T20:09:10.679Z,1.10
2023-04-11T20:11:44.640Z,1.23
2023-04-11T20:14:16.054Z,1.10
2023-04-11T20:16:47.490Z,1.10
2023-04-11T20:19:26.488Z,0.87
2023-04-11T20:21:58.303Z,0.73
2023-04-11T20:24:30.175Z,1.17
2023-04-11T20:27:01.902Z,0.70
2023-04-11T20:29:33.468Z,0.90
2023-04-11T20:32:04.826Z,0.70
2023-04-11T20:34:38.450Z,0.77
2023-04-11T20:37:10.034Z,0.70
2023-04-11T20:39:41.681Z,0.70
2023-04-11T20:42:17.157Z,0.90
2023-04-11T20:44:48.393Z,1.00
2023-04-11T20:47:19.225Z,0.80
2023-04-11T20:49:56.978Z,0.70
2023-04-11T20:52:27.944Z,1.10
2023-04-11T20:54:59.033Z,0.97
2023-04-11T20:57:32.642Z,1.20
2023-04-11T21:00:04.677Z,1.10
2023-04-11T21:02:36.180Z,0.77
2023-04-11T21:05:09.682Z,0.90
2023-04-11T21:07:40.744Z,0.87
2023-04-11T21:10:13.136Z,1.30
2023-04-11T21:12:52.041Z,0.77
2023-04-11T21:15:23.185Z,1.00
2023-04-11T21:17:54.003Z,1.10
2023-04-11T21:20:26.897Z,0.97
2023-04-11T21:22:57.950Z,1.00
2023-04-11T21:25:29.482Z,0.90
2023-04-11T21:28:00.772Z,1.23
2023-04-11T21:30:32.441Z,0.80
2023-04-11T21:33:03.416Z,1.30
2023-04-11T21:35:37.119Z,0.97
2023-04-11T21:38:07.944Z,1.00
2023-04-11T21:40:38.755Z,1.00
2023-04-11T21:43:09.552Z,1.13
2023-04-11T21:45:40.380Z,1.00
2023-04-11T21:48:11.183Z,2.37
2023-04-11T21:50:46.171Z,1.10
2023-04-11T21:53:17.811Z,0.70
2023-04-11T21:55:49.468Z,1.07
2023-04-11T21:58:28.977Z,0.90
2023-04-11T22:01:00.883Z,1.33
2023-04-11T22:03:32.204Z,1.23
2023-04-11T22:06:05.185Z,1.17
2023-04-11T22:08:39.257Z,0.90
2023-04-11T22:11:11.474Z,0.87
2023-04-11T22:13:47.048Z,1.10
2023-04-11T22:16:18.269Z,0.93
2023-04-11T22:18:49.860Z,1.43
2023-04-11T22:21:23.163Z,1.20
2023-04-11T22:23:56.224Z,1.20
2023-04-11T22:26:30.217Z,0.90
2023-04-11T22:29:02.758Z,0.53
2023-04-11T22:31:35.190Z,0.53
2023-04-11T22:34:06.285Z,0.73
2023-04-11T22:36:38.991Z,0.57
2023-04-11T22:39:11.526Z,0.50
2023-04-11T22:41:43.004Z,0.60
2023-04-11T22:44:14.408Z,0.40
2023-04-11T22:46:47.556Z,0.70
2023-04-11T22:49:18.912Z,0.53
2023-04-11T22:51:54.209Z,0.63
2023-04-11T22:54:24.977Z,0.60
2023-04-11T22:56:57.663Z,0.60
2023-04-11T22:59:28.744Z,0.50
2023-04-11T23:02:00.442Z,0.70
2023-04-11T23:04:31.897Z,0.40
2023-04-11T23:07:06.072Z,1.10
2023-04-11T23:09:38.106Z,0.63
2023-04-11T23:12:09.808Z,0.70
2023-04-11T23:14:40.629Z,0.50
2023-04-11T23:17:13.280Z,0.70
2023-04-11T23:19:44.252Z,0.60
2023-04-11T23:22:17.935Z,0.77
2023-04-11T23:24:49.251Z,0.70
2023-04-11T23:27:20.573Z,0.70
2023-04-11T23:29:53.651Z,0.60
2023-04-11T23:32:24.978Z,0.43
2023-04-11T23:34:56.256Z,0.57
2023-04-11T23:37:30.343Z,0.90
2023-04-11T23:40:05.740Z,0.70
2023-04-11T23:42:37.394Z,0.50
2023-04-11T23:45:09.299Z,0.83
2023-04-11T23:47:40.445Z,0.80
2023-04-11T23:50:12.265Z,0.80
2023-04-11T23:52:45.587Z,0.50
2023-04-11T23:55:18.346Z,0.60
2023-04-11T23:57:50.723Z,0.90
